sensor_id;sensor_type;location;lat;lon;timestamp;temperature;humidity
23251;DHT22;11794;49.730;10.088;2023-01-04T00:01:45;3.80;99.90
23251;DHT22;11794;49.730;10.088;2023-01-04T00:04:10;3.80;99.90
23251;DHT22;11794;49.730;10.088;2023-01-04T00:06:36;3.90;99.90
23251;DHT22;11794;49.730;10.088;2023-01-04T00:09:01;4.00;99.90
23251;DHT22;11794;49.730;10.088;2023-01-04T00:11:27;4.10;99.90
23251;DHT22;11794;49.730;10.088;2023-01-04T00:13:57;4.10;99.90
23251;DHT22;11794;49.730;10.088;2023-01-04T00:16:25;4.10;99.90
23251;DHT22;11794;49.730;10.088;2023-01-04T00:18:51;4.00;99.90
23251;DHT22;11794;49.730;10.088;2023-01-04T00:21:21;4.00;99.90
23251;DHT22;11794;49.730;10.088;2023-01-04T00:23:49;4.20;99.90
23251;DHT22;11794;49.730;10.088;2023-01-04T00:26:21;4.20;99.90
23251;DHT22;11794;49.730;10.088;2023-01-04T00:28:47;4.20;99.90
23251;DHT22;11794;49.730;10.088;2023-01-04T00:31:14;4.10;99.90
23251;DHT22;11794;49.730;10.088;2023-01-04T00:33:40;4.10;99.90
23251;DHT22;11794;49.730;10.088;2023-01-04T00:36:11;4.00;99.90
23251;DHT22;11794;49.730;10.088;2023-01-04T00:38:37;4.10;99.90
23251;DHT22;11794;49.730;10.088;2023-01-04T00:41:04;4.00;99.90
23251;DHT22;11794;49.730;10.088;2023-01-04T00:43:30;4.00;99.90
23251;DHT22;11794;49.730;10.088;2023-01-04T00:45:56;4.00;99.90
23251;DHT22;11794;49.730;10.088;2023-01-04T00:48:22;3.90;99.90
23251;DHT22;11794;49.730;10.088;2023-01-04T00:50:48;4.00;99.90
23251;DHT22;11794;49.730;10.088;2023-01-04T00:53:15;4.10;99.90
23251;DHT22;11794;49.730;10.088;2023-01-04T00:55:41;3.90;99.90
23251;DHT22;11794;49.730;10.088;2023-01-04T00:58:07;3.70;99.90
23251;DHT22;11794;49.730;10.088;2023-01-04T01:00:33;3.80;99.90
23251;DHT22;11794;49.730;10.088;2023-01-04T01:02:59;3.70;99.90
23251;DHT22;11794;49.730;10.088;2023-01-04T01:05:24;3.60;99.90
23251;DHT22;11794;49.730;10.088;2023-01-04T01:07:50;3.50;99.90
23251;DHT22;11794;49.730;10.088;2023-01-04T01:10:15;3.40;99.90
23251;DHT22;11794;49.730;10.088;2023-01-04T01:12:41;3.40;99.90
23251;DHT22;11794;49.730;10.088;2023-01-04T01:15:07;3.30;99.90
23251;DHT22;11794;49.730;10.088;2023-01-04T01:17:33;3.20;99.90
23251;DHT22;11794;49.730;10.088;2023-01-04T01:19:58;3.20;99.90
23251;DHT22;11794;49.730;10.088;2023-01-04T01:22:24;3.20;99.90
23251;DHT22;11794;49.730;10.088;2023-01-04T01:24:49;3.10;99.90
23251;DHT22;11794;49.730;10.088;2023-01-04T01:27:15;3.10;99.90
23251;DHT22;11794;49.730;10.088;2023-01-04T01:29:41;3.30;99.90
23251;DHT22;11794;49.730;10.088;2023-01-04T01:32:06;3.40;99.90
23251;DHT22;11794;49.730;10.088;2023-01-04T01:34:32;3.50;99.90
23251;DHT22;11794;49.730;10.088;2023-01-04T01:36:57;3.40;99.90
23251;DHT22;11794;49.730;10.088;2023-01-04T01:39:23;3.40;99.90
23251;DHT22;11794;49.730;10.088;2023-01-04T01:41:48;3.50;99.90
23251;DHT22;11794;49.730;10.088;2023-01-04T01:47:17;3.50;99.90
23251;DHT22;11794;49.730;10.088;2023-01-04T01:49:45;3.50;99.90
23251;DHT22;11794;49.730;10.088;2023-01-04T01:52:31;3.40;99.90
23251;DHT22;11794;49.730;10.088;2023-01-04T01:55:02;3.50;99.90
23251;DHT22;11794;49.730;10.088;2023-01-04T01:57:31;3.60;99.90
23251;DHT22;11794;49.730;10.088;2023-01-04T02:00:03;3.60;99.90
23251;DHT22;11794;49.730;10.088;2023-01-04T02:02:29;3.50;99.90
23251;DHT22;11794;49.730;10.088;2023-01-04T02:04:57;3.50;99.90
23251;DHT22;11794;49.730;10.088;2023-01-04T02:07:25;3.60;99.90
23251;DHT22;11794;49.730;10.088;2023-01-04T02:09:51;3.60;99.90
23251;DHT22;11794;49.730;10.088;2023-01-04T02:12:17;3.40;99.90
23251;DHT22;11794;49.730;10.088;2023-01-04T02:14:45;3.50;99.90
23251;DHT22;11794;49.730;10.088;2023-01-04T02:20:50;3.40;99.90
23251;DHT22;11794;49.730;10.088;2023-01-04T02:26:21;3.40;99.90
23251;DHT22;11794;49.730;10.088;2023-01-04T02:32:03;3.40;99.90
23251;DHT22;11794;49.730;10.088;2023-01-04T02:37:29;3.30;99.90
23251;DHT22;11794;49.730;10.088;2023-01-04T02:40:07;3.20;99.90
23251;DHT22;11794;49.730;10.088;2023-01-04T02:42:56;3.10;99.90
23251;DHT22;11794;49.730;10.088;2023-01-04T02:45:53;3.00;99.90
23251;DHT22;11794;49.730;10.088;2023-01-04T02:48:20;2.80;99.90
23251;DHT22;11794;49.730;10.088;2023-01-04T02:51:04;2.70;99.90
23251;DHT22;11794;49.730;10.088;2023-01-04T02:53:36;2.70;99.90
23251;DHT22;11794;49.730;10.088;2023-01-04T03:07:59;3.40;99.90
23251;DHT22;11794;49.730;10.088;2023-01-04T03:13:12;3.60;99.90
23251;DHT22;11794;49.730;10.088;2023-01-04T03:15:41;3.80;99.90
23251;DHT22;11794;49.730;10.088;2023-01-04T03:18:18;3.80;99.90
23251;DHT22;11794;49.730;10.088;2023-01-04T03:20:46;3.70;99.90
23251;DHT22;11794;49.730;10.088;2023-01-04T03:23:15;3.70;99.90
23251;DHT22;11794;49.730;10.088;2023-01-04T03:26:10;3.70;99.90
23251;DHT22;11794;49.730;10.088;2023-01-04T03:29:07;3.70;99.90
23251;DHT22;11794;49.730;10.088;2023-01-04T03:31:56;3.90;99.90
23251;DHT22;11794;49.730;10.088;2023-01-04T03:34:41;4.10;99.90
23251;DHT22;11794;49.730;10.088;2023-01-04T03:37:36;4.30;99.90
23251;DHT22;11794;49.730;10.088;2023-01-04T03:40:24;4.30;99.90
23251;DHT22;11794;49.730;10.088;2023-01-04T03:43:17;4.30;99.90
23251;DHT22;11794;49.730;10.088;2023-01-04T03:46:20;4.40;99.90
23251;DHT22;11794;49.730;10.088;2023-01-04T03:49:24;4.30;99.90
23251;DHT22;11794;49.730;10.088;2023-01-04T03:51:56;4.30;99.90
23251;DHT22;11794;49.730;10.088;2023-01-04T03:54:26;4.30;99.90
23251;DHT22;11794;49.730;10.088;2023-01-04T03:56:54;4.20;99.90
23251;DHT22;11794;49.730;10.088;2023-01-04T03:59:21;4.20;99.90
23251;DHT22;11794;49.730;10.088;2023-01-04T04:01:47;4.20;99.90
23251;DHT22;11794;49.730;10.088;2023-01-04T04:04:13;4.20;99.90
23251;DHT22;11794;49.730;10.088;2023-01-04T04:06:57;4.10;99.90
23251;DHT22;11794;49.730;10.088;2023-01-04T04:09:41;4.10;99.90
23251;DHT22;11794;49.730;10.088;2023-01-04T04:12:07;4.00;99.90
23251;DHT22;11794;49.730;10.088;2023-01-04T04:14:32;3.90;99.90
23251;DHT22;11794;49.730;10.088;2023-01-04T04:16:58;3.90;99.90
23251;DHT22;11794;49.730;10.088;2023-01-04T04:19:23;3.80;99.90
23251;DHT22;11794;49.730;10.088;2023-01-04T04:21:49;3.90;99.90
23251;DHT22;11794;49.730;10.088;2023-01-04T04:24:19;3.80;99.90
23251;DHT22;11794;49.730;10.088;2023-01-04T04:26:46;3.90;99.90
23251;DHT22;11794;49.730;10.088;2023-01-04T04:29:11;4.00;99.90
23251;DHT22;11794;49.730;10.088;2023-01-04T04:31:37;4.00;99.90
23251;DHT22;11794;49.730;10.088;2023-01-04T04:34:02;4.00;99.90
23251;DHT22;11794;49.730;10.088;2023-01-04T04:36:28;4.10;99.90
23251;DHT22;11794;49.730;10.088;2023-01-04T04:38:53;4.10;99.90
23251;DHT22;11794;49.730;10.088;2023-01-04T04:41:19;4.10;99.90
23251;DHT22;11794;49.730;10.088;2023-01-04T04:44:09;4.10;99.90
23251;DHT22;11794;49.730;10.088;2023-01-04T04:46:35;4.10;99.90
23251;DHT22;11794;49.730;10.088;2023-01-04T04:49:01;4.10;99.90
23251;DHT22;11794;49.730;10.088;2023-01-04T04:51:27;4.20;99.90
23251;DHT22;11794;49.730;10.088;2023-01-04T04:53:52;4.20;99.90
23251;DHT22;11794;49.730;10.088;2023-01-04T04:56:18;4.20;99.90
23251;DHT22;11794;49.730;10.088;2023-01-04T04:58:44;4.30;99.90
23251;DHT22;11794;49.730;10.088;2023-01-04T05:01:09;4.30;99.90
23251;DHT22;11794;49.730;10.088;2023-01-04T05:03:35;4.40;99.90
23251;DHT22;11794;49.730;10.088;2023-01-04T05:06:01;4.40;99.90
23251;DHT22;11794;49.730;10.088;2023-01-04T05:08:27;4.50;99.90
23251;DHT22;11794;49.730;10.088;2023-01-04T05:10:53;4.50;99.90
23251;DHT22;11794;49.730;10.088;2023-01-04T05:13:18;4.50;99.90
23251;DHT22;11794;49.730;10.088;2023-01-04T05:15:47;4.60;99.90
23251;DHT22;11794;49.730;10.088;2023-01-04T05:18:14;4.50;99.90
23251;DHT22;11794;49.730;10.088;2023-01-04T05:20:40;4.50;99.90
23251;DHT22;11794;49.730;10.088;2023-01-04T05:23:06;4.60;99.90
23251;DHT22;11794;49.730;10.088;2023-01-04T05:25:32;4.60;99.90
23251;DHT22;11794;49.730;10.088;2023-01-04T05:27:58;4.70;99.90
23251;DHT22;11794;49.730;10.088;2023-01-04T05:30:24;4.60;99.90
23251;DHT22;11794;49.730;10.088;2023-01-04T05:33:08;4.60;99.90
23251;DHT22;11794;49.730;10.088;2023-01-04T05:35:34;4.60;99.90
23251;DHT22;11794;49.730;10.088;2023-01-04T05:38:00;4.60;99.90
23251;DHT22;11794;49.730;10.088;2023-01-04T05:40:25;4.60;99.90
23251;DHT22;11794;49.730;10.088;2023-01-04T05:42:51;4.60;99.90
23251;DHT22;11794;49.730;10.088;2023-01-04T05:45:17;4.60;99.90
23251;DHT22;11794;49.730;10.088;2023-01-04T05:47:48;4.70;99.90
23251;DHT22;11794;49.730;10.088;2023-01-04T05:50:14;4.70;99.90
23251;DHT22;11794;49.730;10.088;2023-01-04T05:52:40;4.70;99.90
23251;DHT22;11794;49.730;10.088;2023-01-04T05:55:05;4.70;99.90
23251;DHT22;11794;49.730;10.088;2023-01-04T05:57:31;4.80;99.90
23251;DHT22;11794;49.730;10.088;2023-01-04T05:59:56;4.80;99.90
23251;DHT22;11794;49.730;10.088;2023-01-04T06:02:24;4.80;99.90
23251;DHT22;11794;49.730;10.088;2023-01-04T06:04:50;4.80;99.90
23251;DHT22;11794;49.730;10.088;2023-01-04T06:07:16;4.80;99.90
23251;DHT22;11794;49.730;10.088;2023-01-04T06:09:42;4.90;99.90
23251;DHT22;11794;49.730;10.088;2023-01-04T06:12:08;4.90;99.90
23251;DHT22;11794;49.730;10.088;2023-01-04T06:14:34;5.00;99.90
23251;DHT22;11794;49.730;10.088;2023-01-04T06:16:59;5.00;99.90
23251;DHT22;11794;49.730;10.088;2023-01-04T06:19:25;5.00;99.90
23251;DHT22;11794;49.730;10.088;2023-01-04T06:21:51;5.00;99.90
23251;DHT22;11794;49.730;10.088;2023-01-04T06:24:17;5.10;99.90
23251;DHT22;11794;49.730;10.088;2023-01-04T06:26:43;5.10;99.90
23251;DHT22;11794;49.730;10.088;2023-01-04T06:29:08;5.10;99.90
23251;DHT22;11794;49.730;10.088;2023-01-04T06:31:34;5.10;99.90
23251;DHT22;11794;49.730;10.088;2023-01-04T06:34:00;5.10;99.90
23251;DHT22;11794;49.730;10.088;2023-01-04T06:36:26;5.10;99.90
23251;DHT22;11794;49.730;10.088;2023-01-04T06:38:52;5.10;99.90
23251;DHT22;11794;49.730;10.088;2023-01-04T06:41:18;5.10;99.90
23251;DHT22;11794;49.730;10.088;2023-01-04T06:43:44;5.20;99.90
23251;DHT22;11794;49.730;10.088;2023-01-04T06:46:09;5.20;99.90
23251;DHT22;11794;49.730;10.088;2023-01-04T06:48:35;5.30;99.90
23251;DHT22;11794;49.730;10.088;2023-01-04T06:51:01;5.30;99.90
23251;DHT22;11794;49.730;10.088;2023-01-04T06:53:26;5.30;99.90
23251;DHT22;11794;49.730;10.088;2023-01-04T06:55:51;5.30;99.90
23251;DHT22;11794;49.730;10.088;2023-01-04T06:58:17;5.40;99.90
23251;DHT22;11794;49.730;10.088;2023-01-04T07:00:43;5.40;99.90
23251;DHT22;11794;49.730;10.088;2023-01-04T07:03:08;5.40;99.90
23251;DHT22;11794;49.730;10.088;2023-01-04T07:05:34;5.30;99.90
23251;DHT22;11794;49.730;10.088;2023-01-04T07:08:03;5.40;99.90
23251;DHT22;11794;49.730;10.088;2023-01-04T07:10:29;5.40;99.90
23251;DHT22;11794;49.730;10.088;2023-01-04T07:12:54;5.40;99.90
23251;DHT22;11794;49.730;10.088;2023-01-04T07:15:20;5.40;99.90
23251;DHT22;11794;49.730;10.088;2023-01-04T07:17:47;5.40;99.90
23251;DHT22;11794;49.730;10.088;2023-01-04T07:20:12;5.40;99.90
23251;DHT22;11794;49.730;10.088;2023-01-04T07:22:38;5.50;99.90
23251;DHT22;11794;49.730;10.088;2023-01-04T07:25:04;5.50;99.90
23251;DHT22;11794;49.730;10.088;2023-01-04T07:27:30;5.50;99.90
23251;DHT22;11794;49.730;10.088;2023-01-04T07:29:55;5.60;99.90
23251;DHT22;11794;49.730;10.088;2023-01-04T07:32:21;5.50;99.90
23251;DHT22;11794;49.730;10.088;2023-01-04T07:34:46;5.60;99.90
23251;DHT22;11794;49.730;10.088;2023-01-04T07:37:12;5.50;99.90
23251;DHT22;11794;49.730;10.088;2023-01-04T07:39:39;5.50;99.90
23251;DHT22;11794;49.730;10.088;2023-01-04T07:42:04;5.60;99.90
23251;DHT22;11794;49.730;10.088;2023-01-04T07:44:30;5.50;99.90
23251;DHT22;11794;49.730;10.088;2023-01-04T07:46:56;5.60;99.90
23251;DHT22;11794;49.730;10.088;2023-01-04T07:49:21;5.60;99.90
23251;DHT22;11794;49.730;10.088;2023-01-04T07:51:47;5.60;99.90
23251;DHT22;11794;49.730;10.088;2023-01-04T07:54:16;5.60;99.90
23251;DHT22;11794;49.730;10.088;2023-01-04T07:56:43;5.60;99.90
23251;DHT22;11794;49.730;10.088;2023-01-04T07:59:09;5.60;99.90
23251;DHT22;11794;49.730;10.088;2023-01-04T08:01:35;5.70;99.90
23251;DHT22;11794;49.730;10.088;2023-01-04T08:04:04;5.70;99.90
23251;DHT22;11794;49.730;10.088;2023-01-04T08:06:30;5.80;99.90
23251;DHT22;11794;49.730;10.088;2023-01-04T08:08:57;5.80;99.90
23251;DHT22;11794;49.730;10.088;2023-01-04T08:11:23;5.90;99.90
23251;DHT22;11794;49.730;10.088;2023-01-04T08:13:49;5.90;99.90
23251;DHT22;11794;49.730;10.088;2023-01-04T08:16:26;6.10;99.90
23251;DHT22;11794;49.730;10.088;2023-01-04T08:18:56;6.30;99.90
23251;DHT22;11794;49.730;10.088;2023-01-04T08:21:23;6.30;99.90
23251;DHT22;11794;49.730;10.088;2023-01-04T08:23:48;6.30;99.90
23251;DHT22;11794;49.730;10.088;2023-01-04T08:26:15;6.20;99.90
23251;DHT22;11794;49.730;10.088;2023-01-04T08:28:41;6.20;99.90
23251;DHT22;11794;49.730;10.088;2023-01-04T08:31:17;6.30;99.90
23251;DHT22;11794;49.730;10.088;2023-01-04T08:33:44;6.40;99.90
23251;DHT22;11794;49.730;10.088;2023-01-04T08:36:18;6.40;99.90
23251;DHT22;11794;49.730;10.088;2023-01-04T08:38:45;6.50;99.90
23251;DHT22;11794;49.730;10.088;2023-01-04T08:41:11;6.60;99.90
23251;DHT22;11794;49.730;10.088;2023-01-04T08:43:37;6.70;99.90
23251;DHT22;11794;49.730;10.088;2023-01-04T08:46:03;6.70;99.90
23251;DHT22;11794;49.730;10.088;2023-01-04T08:48:30;6.80;99.90
23251;DHT22;11794;49.730;10.088;2023-01-04T08:51:13;6.80;99.90
23251;DHT22;11794;49.730;10.088;2023-01-04T08:53:39;6.80;99.90
23251;DHT22;11794;49.730;10.088;2023-01-04T08:56:05;6.80;99.90
23251;DHT22;11794;49.730;10.088;2023-01-04T08:58:33;6.80;99.90
23251;DHT22;11794;49.730;10.088;2023-01-04T09:01:04;6.90;99.90
23251;DHT22;11794;49.730;10.088;2023-01-04T09:03:30;6.90;99.90
23251;DHT22;11794;49.730;10.088;2023-01-04T09:08:32;6.90;99.90
23251;DHT22;11794;49.730;10.088;2023-01-04T09:11:06;6.90;99.90
23251;DHT22;11794;49.730;10.088;2023-01-04T09:13:33;6.90;99.90
23251;DHT22;11794;49.730;10.088;2023-01-04T09:16:01;6.90;99.90
23251;DHT22;11794;49.730;10.088;2023-01-04T09:18:27;7.00;99.90
23251;DHT22;11794;49.730;10.088;2023-01-04T09:20:52;6.90;99.90
23251;DHT22;11794;49.730;10.088;2023-01-04T09:23:18;7.00;99.90
23251;DHT22;11794;49.730;10.088;2023-01-04T09:25:43;7.00;99.90
23251;DHT22;11794;49.730;10.088;2023-01-04T09:28:09;7.00;99.90
23251;DHT22;11794;49.730;10.088;2023-01-04T09:30:35;7.10;99.90
23251;DHT22;11794;49.730;10.088;2023-01-04T09:33:00;7.10;99.90
23251;DHT22;11794;49.730;10.088;2023-01-04T09:35:26;7.10;99.90
23251;DHT22;11794;49.730;10.088;2023-01-04T09:37:51;7.10;99.90
23251;DHT22;11794;49.730;10.088;2023-01-04T09:40:23;7.20;99.90
23251;DHT22;11794;49.730;10.088;2023-01-04T09:42:52;7.20;99.90
23251;DHT22;11794;49.730;10.088;2023-01-04T09:45:21;7.10;99.90
23251;DHT22;11794;49.730;10.088;2023-01-04T09:48:10;7.20;99.90
23251;DHT22;11794;49.730;10.088;2023-01-04T09:50:58;7.20;99.90
23251;DHT22;11794;49.730;10.088;2023-01-04T09:53:35;7.20;99.90
23251;DHT22;11794;49.730;10.088;2023-01-04T09:56:24;7.20;99.90
23251;DHT22;11794;49.730;10.088;2023-01-04T09:58:51;7.30;99.90
23251;DHT22;11794;49.730;10.088;2023-01-04T10:01:21;7.30;99.90
23251;DHT22;11794;49.730;10.088;2023-01-04T10:03:57;7.40;99.90
23251;DHT22;11794;49.730;10.088;2023-01-04T10:06:24;7.40;99.90
23251;DHT22;11794;49.730;10.088;2023-01-04T10:08:50;7.40;99.90
23251;DHT22;11794;49.730;10.088;2023-01-04T10:14:43;7.50;99.90
23251;DHT22;11794;49.730;10.088;2023-01-04T10:17:38;7.40;99.90
23251;DHT22;11794;49.730;10.088;2023-01-04T10:23:04;7.40;99.90
23251;DHT22;11794;49.730;10.088;2023-01-04T10:25:54;7.40;99.90
23251;DHT22;11794;49.730;10.088;2023-01-04T10:31:04;7.40;99.90
23251;DHT22;11794;49.730;10.088;2023-01-04T10:36:19;7.50;99.90
23251;DHT22;11794;49.730;10.088;2023-01-04T10:38:47;7.50;99.90
23251;DHT22;11794;49.730;10.088;2023-01-04T10:41:20;7.50;99.90
23251;DHT22;11794;49.730;10.088;2023-01-04T10:44:07;7.50;99.90
23251;DHT22;11794;49.730;10.088;2023-01-04T10:46:44;7.50;99.90
23251;DHT22;11794;49.730;10.088;2023-01-04T10:49:24;7.50;99.90
23251;DHT22;11794;49.730;10.088;2023-01-04T10:52:04;7.60;99.90
23251;DHT22;11794;49.730;10.088;2023-01-04T10:54:41;7.60;99.90
23251;DHT22;11794;49.730;10.088;2023-01-04T10:57:14;7.60;99.90
23251;DHT22;11794;49.730;10.088;2023-01-04T11:10:56;8.00;99.90
23251;DHT22;11794;49.730;10.088;2023-01-04T11:13:23;8.10;99.90
23251;DHT22;11794;49.730;10.088;2023-01-04T11:15:49;8.20;99.90
23251;DHT22;11794;49.730;10.088;2023-01-04T11:18:16;8.10;99.90
23251;DHT22;11794;49.730;10.088;2023-01-04T11:20:42;8.10;99.90
23251;DHT22;11794;49.730;10.088;2023-01-04T11:23:15;8.20;99.90
23251;DHT22;11794;49.730;10.088;2023-01-04T11:25:53;8.10;99.90
23251;DHT22;11794;49.730;10.088;2023-01-04T11:33:25;8.20;99.90
23251;DHT22;11794;49.730;10.088;2023-01-04T11:35:52;8.20;99.90
23251;DHT22;11794;49.730;10.088;2023-01-04T11:38:22;8.20;99.90
23251;DHT22;11794;49.730;10.088;2023-01-04T11:43:29;8.40;99.90
23251;DHT22;11794;49.730;10.088;2023-01-04T11:46:01;8.30;99.90
23251;DHT22;11794;49.730;10.088;2023-01-04T11:48:31;8.40;99.90
23251;DHT22;11794;49.730;10.088;2023-01-04T11:50:57;8.40;99.90
23251;DHT22;11794;49.730;10.088;2023-01-04T11:53:31;8.40;99.90
23251;DHT22;11794;49.730;10.088;2023-01-04T11:56:21;8.40;99.90
23251;DHT22;11794;49.730;10.088;2023-01-04T12:01:32;8.30;99.90
23251;DHT22;11794;49.730;10.088;2023-01-04T12:03:58;8.30;99.90
23251;DHT22;11794;49.730;10.088;2023-01-04T12:06:32;8.20;99.90
23251;DHT22;11794;49.730;10.088;2023-01-04T12:08:59;8.20;99.90
23251;DHT22;11794;49.730;10.088;2023-01-04T12:11:28;8.20;99.90
23251;DHT22;11794;49.730;10.088;2023-01-04T12:13:54;8.20;99.90
23251;DHT22;11794;49.730;10.088;2023-01-04T12:16:44;8.10;99.90
23251;DHT22;11794;49.730;10.088;2023-01-04T12:19:16;8.10;99.90
23251;DHT22;11794;49.730;10.088;2023-01-04T12:21:54;8.10;99.90
23251;DHT22;11794;49.730;10.088;2023-01-04T12:24:23;8.10;99.90
23251;DHT22;11794;49.730;10.088;2023-01-04T12:26:49;8.10;99.90
23251;DHT22;11794;49.730;10.088;2023-01-04T12:31:47;8.10;99.90
23251;DHT22;11794;49.730;10.088;2023-01-04T12:47:02;8.10;99.90
23251;DHT22;11794;49.730;10.088;2023-01-04T12:50:22;8.10;99.90
23251;DHT22;11794;49.730;10.088;2023-01-04T12:53:02;8.10;99.90
23251;DHT22;11794;49.730;10.088;2023-01-04T12:58:01;8.20;99.90
23251;DHT22;11794;49.730;10.088;2023-01-04T13:05:54;8.10;99.90
23251;DHT22;11794;49.730;10.088;2023-01-04T13:08:23;8.10;99.90
23251;DHT22;11794;49.730;10.088;2023-01-04T13:10:50;8.20;99.90
23251;DHT22;11794;49.730;10.088;2023-01-04T13:18:52;8.20;99.90
23251;DHT22;11794;49.730;10.088;2023-01-04T13:21:33;8.20;99.90
23251;DHT22;11794;49.730;10.088;2023-01-04T13:26:45;8.20;99.90
23251;DHT22;11794;49.730;10.088;2023-01-04T13:29:29;8.20;99.90
23251;DHT22;11794;49.730;10.088;2023-01-04T13:32:07;8.30;99.90
23251;DHT22;11794;49.730;10.088;2023-01-04T13:34:39;8.30;99.90
23251;DHT22;11794;49.730;10.088;2023-01-04T13:39:32;8.30;99.90
23251;DHT22;11794;49.730;10.088;2023-01-04T13:41:58;8.30;99.90
23251;DHT22;11794;49.730;10.088;2023-01-04T13:47:16;8.30;99.90
23251;DHT22;11794;49.730;10.088;2023-01-04T13:49:41;8.30;99.90
23251;DHT22;11794;49.730;10.088;2023-01-04T13:52:25;8.30;99.90
23251;DHT22;11794;49.730;10.088;2023-01-04T13:55:17;8.30;99.90
23251;DHT22;11794;49.730;10.088;2023-01-04T14:00:19;8.40;99.90
23251;DHT22;11794;49.730;10.088;2023-01-04T14:02:44;8.40;99.90
23251;DHT22;11794;49.730;10.088;2023-01-04T14:05:15;8.40;99.90
23251;DHT22;11794;49.730;10.088;2023-01-04T14:07:43;8.40;99.90
23251;DHT22;11794;49.730;10.088;2023-01-04T14:10:17;8.40;99.90
23251;DHT22;11794;49.730;10.088;2023-01-04T14:12:44;8.40;99.90
23251;DHT22;11794;49.730;10.088;2023-01-04T14:15:22;8.40;99.90
23251;DHT22;11794;49.730;10.088;2023-01-04T14:17:53;8.30;99.90
23251;DHT22;11794;49.730;10.088;2023-01-04T14:25:36;8.20;99.90
23251;DHT22;11794;49.730;10.088;2023-01-04T14:28:30;8.10;99.90
23251;DHT22;11794;49.730;10.088;2023-01-04T14:38:35;8.10;99.90
23251;DHT22;11794;49.730;10.088;2023-01-04T14:41:43;8.20;99.90
23251;DHT22;11794;49.730;10.088;2023-01-04T14:44:20;8.20;99.90
23251;DHT22;11794;49.730;10.088;2023-01-04T14:46:52;8.20;99.90
23251;DHT22;11794;49.730;10.088;2023-01-04T14:49:18;8.20;99.90
23251;DHT22;11794;49.730;10.088;2023-01-04T14:51:58;8.30;99.90
23251;DHT22;11794;49.730;10.088;2023-01-04T14:54:25;8.30;99.90
23251;DHT22;11794;49.730;10.088;2023-01-04T14:56:52;8.30;99.90
23251;DHT22;11794;49.730;10.088;2023-01-04T14:59:18;8.30;99.90
23251;DHT22;11794;49.730;10.088;2023-01-04T15:01:44;8.30;99.90
23251;DHT22;11794;49.730;10.088;2023-01-04T15:04:09;8.30;99.90
23251;DHT22;11794;49.730;10.088;2023-01-04T15:06:35;8.40;99.90
23251;DHT22;11794;49.730;10.088;2023-01-04T15:09:01;8.40;99.90
23251;DHT22;11794;49.730;10.088;2023-01-04T15:11:27;8.40;99.90
23251;DHT22;11794;49.730;10.088;2023-01-04T15:13:53;8.40;99.90
23251;DHT22;11794;49.730;10.088;2023-01-04T15:16:19;8.40;99.90
23251;DHT22;11794;49.730;10.088;2023-01-04T15:18:45;8.40;99.90
23251;DHT22;11794;49.730;10.088;2023-01-04T15:21:11;8.40;99.90
23251;DHT22;11794;49.730;10.088;2023-01-04T15:23:37;8.40;99.90
23251;DHT22;11794;49.730;10.088;2023-01-04T15:26:05;8.40;99.90
23251;DHT22;11794;49.730;10.088;2023-01-04T15:28:31;8.40;99.90
23251;DHT22;11794;49.730;10.088;2023-01-04T15:30:57;8.40;99.90
23251;DHT22;11794;49.730;10.088;2023-01-04T15:33:22;8.50;99.90
23251;DHT22;11794;49.730;10.088;2023-01-04T15:36:00;8.50;99.90
23251;DHT22;11794;49.730;10.088;2023-01-04T15:38:27;8.50;99.90
23251;DHT22;11794;49.730;10.088;2023-01-04T15:40:59;8.50;99.90
23251;DHT22;11794;49.730;10.088;2023-01-04T15:43:24;8.50;99.90
23251;DHT22;11794;49.730;10.088;2023-01-04T15:45:50;8.50;99.90
23251;DHT22;11794;49.730;10.088;2023-01-04T15:48:15;8.60;99.90
23251;DHT22;11794;49.730;10.088;2023-01-04T15:50:41;8.50;99.90
23251;DHT22;11794;49.730;10.088;2023-01-04T15:53:07;8.50;99.90
23251;DHT22;11794;49.730;10.088;2023-01-04T15:55:34;8.50;99.90
23251;DHT22;11794;49.730;10.088;2023-01-04T15:57:59;8.50;99.90
23251;DHT22;11794;49.730;10.088;2023-01-04T16:00:25;8.50;99.90
23251;DHT22;11794;49.730;10.088;2023-01-04T16:02:51;8.50;99.90
23251;DHT22;11794;49.730;10.088;2023-01-04T16:05:16;8.50;99.90
23251;DHT22;11794;49.730;10.088;2023-01-04T16:07:43;8.50;99.90
23251;DHT22;11794;49.730;10.088;2023-01-04T16:10:09;8.50;99.90
23251;DHT22;11794;49.730;10.088;2023-01-04T16:12:35;8.40;99.90
23251;DHT22;11794;49.730;10.088;2023-01-04T16:15:08;8.40;99.90
23251;DHT22;11794;49.730;10.088;2023-01-04T16:17:34;8.40;99.90
23251;DHT22;11794;49.730;10.088;2023-01-04T16:20:00;8.40;99.90
23251;DHT22;11794;49.730;10.088;2023-01-04T16:22:25;8.30;99.90
23251;DHT22;11794;49.730;10.088;2023-01-04T16:24:51;8.30;99.90
23251;DHT22;11794;49.730;10.088;2023-01-04T16:27:16;8.20;99.90
23251;DHT22;11794;49.730;10.088;2023-01-04T16:29:42;8.20;99.90
23251;DHT22;11794;49.730;10.088;2023-01-04T16:32:08;8.20;99.90
23251;DHT22;11794;49.730;10.088;2023-01-04T16:34:33;8.20;99.90
23251;DHT22;11794;49.730;10.088;2023-01-04T16:36:59;8.20;99.90
23251;DHT22;11794;49.730;10.088;2023-01-04T16:39:24;8.20;99.90
23251;DHT22;11794;49.730;10.088;2023-01-04T16:41:50;8.20;99.90
23251;DHT22;11794;49.730;10.088;2023-01-04T16:44:15;8.20;99.90
23251;DHT22;11794;49.730;10.088;2023-01-04T16:46:41;8.20;99.90
23251;DHT22;11794;49.730;10.088;2023-01-04T16:49:11;8.20;99.90
23251;DHT22;11794;49.730;10.088;2023-01-04T16:51:39;8.20;99.90
23251;DHT22;11794;49.730;10.088;2023-01-04T16:54:08;8.30;99.90
23251;DHT22;11794;49.730;10.088;2023-01-04T16:56:34;8.30;99.90
23251;DHT22;11794;49.730;10.088;2023-01-04T16:59:00;8.30;99.90
23251;DHT22;11794;49.730;10.088;2023-01-04T17:01:28;8.40;99.90
23251;DHT22;11794;49.730;10.088;2023-01-04T17:03:56;8.30;99.90
23251;DHT22;11794;49.730;10.088;2023-01-04T17:06:24;8.40;99.90
23251;DHT22;11794;49.730;10.088;2023-01-04T17:08:51;8.40;99.90
23251;DHT22;11794;49.730;10.088;2023-01-04T17:11:20;8.40;99.90
23251;DHT22;11794;49.730;10.088;2023-01-04T17:13:46;8.50;99.90
23251;DHT22;11794;49.730;10.088;2023-01-04T17:16:12;8.60;99.90
23251;DHT22;11794;49.730;10.088;2023-01-04T17:18:38;8.60;99.90
23251;DHT22;11794;49.730;10.088;2023-01-04T17:21:05;8.60;99.90
23251;DHT22;11794;49.730;10.088;2023-01-04T17:23:35;8.70;99.90
23251;DHT22;11794;49.730;10.088;2023-01-04T17:26:05;8.70;99.90
23251;DHT22;11794;49.730;10.088;2023-01-04T17:28:30;8.70;99.90
23251;DHT22;11794;49.730;10.088;2023-01-04T17:30:56;8.70;99.90
23251;DHT22;11794;49.730;10.088;2023-01-04T17:33:22;8.80;99.90
23251;DHT22;11794;49.730;10.088;2023-01-04T17:35:48;8.80;99.90
23251;DHT22;11794;49.730;10.088;2023-01-04T17:38:14;8.80;99.90
23251;DHT22;11794;49.730;10.088;2023-01-04T17:40:39;8.80;99.90
23251;DHT22;11794;49.730;10.088;2023-01-04T17:43:05;8.80;99.90